sensor_id;sensor_type;location;lat;lon;timestamp;P1;durP1;ratioP1;P2;durP2;ratioP2
78372;SDS011;67656;52.074;4.758;2023-07-24T00:01:44;6.43;;;3.05;;
78372;SDS011;67656;52.074;4.758;2023-07-24T00:06:44;4.70;;;2.88;;
78372;SDS011;67656;52.074;4.758;2023-07-24T00:11:45;6.20;;;3.20;;
78372;SDS011;67656;52.074;4.758;2023-07-24T00:16:45;5.50;;;3.00;;
78372;SDS011;67656;52.074;4.758;2023-07-24T00:21:45;6.63;;;3.42;;
78372;SDS011;67656;52.074;4.758;2023-07-24T00:26:46;5.90;;;3.42;;
78372;SDS011;67656;52.074;4.758;2023-07-24T00:31:46;6.35;;;3.30;;
78372;SDS011;67656;52.074;4.758;2023-07-24T00:36:47;5.75;;;3.50;;
78372;SDS011;67656;52.074;4.758;2023-07-24T00:41:47;5.57;;;3.10;;
78372;SDS011;67656;52.074;4.758;2023-07-24T00:46:48;5.35;;;3.20;;
78372;SDS011;67656;52.074;4.758;2023-07-24T00:51:49;6.47;;;3.25;;
78372;SDS011;67656;52.074;4.758;2023-07-24T00:56:51;8.15;;;3.20;;
78372;SDS011;67656;52.074;4.758;2023-07-24T01:01:52;4.93;;;3.22;;
78372;SDS011;67656;52.074;4.758;2023-07-24T01:06:52;6.70;;;3.30;;
78372;SDS011;67656;52.074;4.758;2023-07-24T01:12:02;6.93;;;3.25;;
78372;SDS011;67656;52.074;4.758;2023-07-24T01:17:10;7.53;;;3.28;;
78372;SDS011;67656;52.074;4.758;2023-07-24T01:27:27;6.22;;;3.13;;
78372;SDS011;67656;52.074;4.758;2023-07-24T01:32:27;8.13;;;3.08;;
78372;SDS011;67656;52.074;4.758;2023-07-24T01:37:28;6.75;;;3.25;;
78372;SDS011;67656;52.074;4.758;2023-07-24T01:42:29;6.18;;;3.13;;
78372;SDS011;67656;52.074;4.758;2023-07-24T01:47:30;5.50;;;2.60;;
78372;SDS011;67656;52.074;4.758;2023-07-24T01:52:31;5.13;;;2.58;;
78372;SDS011;67656;52.074;4.758;2023-07-24T01:57:31;5.32;;;3.00;;
78372;SDS011;67656;52.074;4.758;2023-07-24T02:02:32;6.72;;;2.95;;
78372;SDS011;67656;52.074;4.758;2023-07-24T02:07:32;8.27;;;3.10;;
78372;SDS011;67656;52.074;4.758;2023-07-24T02:12:32;5.78;;;3.00;;
78372;SDS011;67656;52.074;4.758;2023-07-24T02:17:33;6.82;;;3.00;;
78372;SDS011;67656;52.074;4.758;2023-07-24T02:22:33;13.13;;;3.47;;
78372;SDS011;67656;52.074;4.758;2023-07-24T02:27:34;7.30;;;3.40;;
78372;SDS011;67656;52.074;4.758;2023-07-24T02:32:34;6.55;;;3.33;;
78372;SDS011;67656;52.074;4.758;2023-07-24T02:37:35;10.02;;;3.58;;
78372;SDS011;67656;52.074;4.758;2023-07-24T02:42:36;7.68;;;3.65;;
78372;SDS011;67656;52.074;4.758;2023-07-24T02:47:36;6.70;;;3.45;;
78372;SDS011;67656;52.074;4.758;2023-07-24T02:52:37;8.57;;;3.47;;
78372;SDS011;67656;52.074;4.758;2023-07-24T02:57:37;7.60;;;3.50;;
78372;SDS011;67656;52.074;4.758;2023-07-24T03:02:38;9.13;;;3.63;;
78372;SDS011;67656;52.074;4.758;2023-07-24T03:07:39;9.88;;;3.90;;
78372;SDS011;67656;52.074;4.758;2023-07-24T03:12:39;8.25;;;4.07;;
78372;SDS011;67656;52.074;4.758;2023-07-24T03:17:40;7.90;;;3.97;;
78372;SDS011;67656;52.074;4.758;2023-07-24T03:22:40;8.95;;;4.00;;
78372;SDS011;67656;52.074;4.758;2023-07-24T03:27:41;9.35;;;3.70;;
78372;SDS011;67656;52.074;4.758;2023-07-24T03:32:41;8.10;;;3.80;;
78372;SDS011;67656;52.074;4.758;2023-07-24T03:37:42;9.13;;;4.10;;
78372;SDS011;67656;52.074;4.758;2023-07-24T03:42:43;8.57;;;4.28;;
78372;SDS011;67656;52.074;4.758;2023-07-24T03:47:43;9.23;;;4.30;;
78372;SDS011;67656;52.074;4.758;2023-07-24T03:52:43;8.02;;;4.00;;
78372;SDS011;67656;52.074;4.758;2023-07-24T03:57:44;11.93;;;3.85;;
78372;SDS011;67656;52.074;4.758;2023-07-24T04:02:44;9.40;;;4.43;;
78372;SDS011;67656;52.074;4.758;2023-07-24T04:07:45;9.25;;;4.30;;
78372;SDS011;67656;52.074;4.758;2023-07-24T04:12:45;9.40;;;3.90;;
78372;SDS011;67656;52.074;4.758;2023-07-24T04:17:46;10.45;;;4.45;;
78372;SDS011;67656;52.074;4.758;2023-07-24T04:22:46;10.85;;;4.38;;
78372;SDS011;67656;52.074;4.758;2023-07-24T04:27:47;11.60;;;4.15;;
78372;SDS011;67656;52.074;4.758;2023-07-24T04:32:47;9.98;;;4.07;;
78372;SDS011;67656;52.074;4.758;2023-07-24T04:37:47;8.55;;;3.58;;
78372;SDS011;67656;52.074;4.758;2023-07-24T04:42:48;10.18;;;3.78;;
78372;SDS011;67656;52.074;4.758;2023-07-24T04:47:48;12.02;;;3.70;;
78372;SDS011;67656;52.074;4.758;2023-07-24T04:52:49;9.20;;;3.45;;
78372;SDS011;67656;52.074;4.758;2023-07-24T04:57:49;12.82;;;3.42;;
78372;SDS011;67656;52.074;4.758;2023-07-24T05:02:50;7.50;;;3.38;;
78372;SDS011;67656;52.074;4.758;2023-07-24T05:07:50;9.38;;;3.10;;
78372;SDS011;67656;52.074;4.758;2023-07-24T05:12:50;9.07;;;3.42;;
78372;SDS011;67656;52.074;4.758;2023-07-24T05:17:51;8.63;;;3.20;;
78372;SDS011;67656;52.074;4.758;2023-07-24T05:22:51;10.80;;;3.40;;
78372;SDS011;67656;52.074;4.758;2023-07-24T05:27:52;8.48;;;3.10;;
78372;SDS011;67656;52.074;4.758;2023-07-24T05:32:53;7.60;;;3.13;;
78372;SDS011;67656;52.074;4.758;2023-07-24T05:37:53;11.65;;;3.53;;
78372;SDS011;67656;52.074;4.758;2023-07-24T05:47:57;8.68;;;3.05;;
78372;SDS011;67656;52.074;4.758;2023-07-24T05:52:58;6.60;;;2.42;;
78372;SDS011;67656;52.074;4.758;2023-07-24T05:57:58;10.18;;;2.90;;
78372;SDS011;67656;52.074;4.758;2023-07-24T06:02:58;9.13;;;2.90;;
78372;SDS011;67656;52.074;4.758;2023-07-24T06:07:59;4.78;;;2.08;;
78372;SDS011;67656;52.074;4.758;2023-07-24T06:12:59;5.85;;;2.20;;
78372;SDS011;67656;52.074;4.758;2023-07-24T06:18:00;5.97;;;2.00;;
78372;SDS011;67656;52.074;4.758;2023-07-24T06:23:05;7.40;;;2.40;;
78372;SDS011;67656;52.074;4.758;2023-07-24T06:28:06;4.63;;;2.50;;
78372;SDS011;67656;52.074;4.758;2023-07-24T06:33:10;5.68;;;2.20;;
78372;SDS011;67656;52.074;4.758;2023-07-24T06:38:22;6.05;;;2.03;;
78372;SDS011;67656;52.074;4.758;2023-07-24T06:43:25;6.13;;;1.90;;
78372;SDS011;67656;52.074;4.758;2023-07-24T06:48:26;4.72;;;2.00;;
78372;SDS011;67656;52.074;4.758;2023-07-24T06:53:29;6.35;;;1.92;;
78372;SDS011;67656;52.074;4.758;2023-07-24T06:58:34;6.10;;;1.92;;
78372;SDS011;67656;52.074;4.758;2023-07-24T07:03:35;6.95;;;2.30;;
78372;SDS011;67656;52.074;4.758;2023-07-24T07:08:38;5.05;;;2.05;;
78372;SDS011;67656;52.074;4.758;2023-07-24T07:13:41;7.35;;;2.30;;
78372;SDS011;67656;52.074;4.758;2023-07-24T07:18:42;6.50;;;2.13;;
78372;SDS011;67656;52.074;4.758;2023-07-24T07:23:46;6.40;;;1.92;;
78372;SDS011;67656;52.074;4.758;2023-07-24T07:29:33;6.50;;;2.10;;
78372;SDS011;67656;52.074;4.758;2023-07-24T07:34:37;7.38;;;2.33;;
78372;SDS011;67656;52.074;4.758;2023-07-24T07:39:37;6.15;;;2.28;;
78372;SDS011;67656;52.074;4.758;2023-07-24T07:44:40;7.10;;;2.22;;
78372;SDS011;67656;52.074;4.758;2023-07-24T07:49:40;9.68;;;2.70;;
78372;SDS011;67656;52.074;4.758;2023-07-24T07:54:45;7.53;;;2.28;;
78372;SDS011;67656;52.074;4.758;2023-07-24T07:59:48;6.43;;;2.45;;
78372;SDS011;67656;52.074;4.758;2023-07-24T08:04:49;6.10;;;2.40;;
78372;SDS011;67656;52.074;4.758;2023-07-24T08:09:49;8.85;;;3.00;;
78372;SDS011;67656;52.074;4.758;2023-07-24T08:14:50;5.30;;;2.58;;
78372;SDS011;67656;52.074;4.758;2023-07-24T08:19:50;4.28;;;2.60;;
78372;SDS011;67656;52.074;4.758;2023-07-24T08:24:51;7.00;;;3.20;;
78372;SDS011;67656;52.074;4.758;2023-07-24T08:29:52;5.88;;;2.90;;
78372;SDS011;67656;52.074;4.758;2023-07-24T08:34:52;8.23;;;3.33;;
78372;SDS011;67656;52.074;4.758;2023-07-24T08:39:53;9.20;;;3.10;;
78372;SDS011;67656;52.074;4.758;2023-07-24T08:44:53;9.52;;;3.38;;
78372;SDS011;67656;52.074;4.758;2023-07-24T08:49:54;5.50;;;2.75;;
78372;SDS011;67656;52.074;4.758;2023-07-24T08:54:55;7.47;;;3.90;;
78372;SDS011;67656;52.074;4.758;2023-07-24T08:59:58;8.55;;;3.58;;
78372;SDS011;67656;52.074;4.758;2023-07-24T09:04:58;7.30;;;3.70;;
78372;SDS011;67656;52.074;4.758;2023-07-24T09:09:59;7.63;;;3.60;;
78372;SDS011;67656;52.074;4.758;2023-07-24T09:15:00;7.97;;;3.90;;
78372;SDS011;67656;52.074;4.758;2023-07-24T09:20:02;8.02;;;3.50;;
78372;SDS011;67656;52.074;4.758;2023-07-24T09:25:03;8.63;;;4.03;;
78372;SDS011;67656;52.074;4.758;2023-07-24T09:30:11;6.32;;;3.15;;
78372;SDS011;67656;52.074;4.758;2023-07-24T09:35:16;8.18;;;3.88;;
78372;SDS011;67656;52.074;4.758;2023-07-24T09:40:17;7.75;;;3.65;;
78372;SDS011;67656;52.074;4.758;2023-07-24T09:45:17;10.40;;;3.00;;
78372;SDS011;67656;52.074;4.758;2023-07-24T09:50:18;5.75;;;2.97;;
78372;SDS011;67656;52.074;4.758;2023-07-24T09:55:21;4.95;;;2.50;;
78372;SDS011;67656;52.074;4.758;2023-07-24T10:00:29;7.32;;;2.70;;
78372;SDS011;67656;52.074;4.758;2023-07-24T10:10:31;4.40;;;2.15;;
78372;SDS011;67656;52.074;4.758;2023-07-24T10:15:33;5.05;;;2.10;;
78372;SDS011;67656;52.074;4.758;2023-07-24T10:20:37;4.68;;;2.00;;
78372;SDS011;67656;52.074;4.758;2023-07-24T10:25:43;5.78;;;2.30;;
78372;SDS011;67656;52.074;4.758;2023-07-24T10:30:44;7.22;;;2.25;;
78372;SDS011;67656;52.074;4.758;2023-07-24T10:36:03;4.43;;;2.22;;
78372;SDS011;67656;52.074;4.758;2023-07-24T10:41:07;4.60;;;2.00;;
78372;SDS011;67656;52.074;4.758;2023-07-24T10:46:09;5.22;;;2.05;;
78372;SDS011;67656;52.074;4.758;2023-07-24T10:51:10;3.55;;;2.10;;
78372;SDS011;67656;52.074;4.758;2023-07-24T10:56:11;4.65;;;2.17;;
78372;SDS011;67656;52.074;4.758;2023-07-24T11:01:11;5.25;;;2.33;;
78372;SDS011;67656;52.074;4.758;2023-07-24T11:06:13;5.80;;;2.35;;
78372;SDS011;67656;52.074;4.758;2023-07-24T11:11:15;4.15;;;2.60;;
78372;SDS011;67656;52.074;4.758;2023-07-24T11:16:15;5.72;;;2.60;;
78372;SDS011;67656;52.074;4.758;2023-07-24T11:21:19;4.55;;;2.70;;
78372;SDS011;67656;52.074;4.758;2023-07-24T11:26:20;5.28;;;2.60;;
78372;SDS011;67656;52.074;4.758;2023-07-24T11:31:22;5.15;;;2.80;;
78372;SDS011;67656;52.074;4.758;2023-07-24T11:36:22;4.95;;;3.05;;
78372;SDS011;67656;52.074;4.758;2023-07-24T11:41:23;5.78;;;3.10;;
78372;SDS011;67656;52.074;4.758;2023-07-24T11:46:24;4.03;;;2.85;;
78372;SDS011;67656;52.074;4.758;2023-07-24T11:51:26;4.18;;;2.55;;
78372;SDS011;67656;52.074;4.758;2023-07-24T11:56:26;2.50;;;1.58;;
78372;SDS011;67656;52.074;4.758;2023-07-24T12:01:29;2.50;;;1.70;;
78372;SDS011;67656;52.074;4.758;2023-07-24T12:06:33;4.97;;;1.80;;
78372;SDS011;67656;52.074;4.758;2023-07-24T12:11:33;4.97;;;1.98;;
78372;SDS011;67656;52.074;4.758;2023-07-24T12:16:40;3.08;;;2.00;;
78372;SDS011;67656;52.074;4.758;2023-07-24T12:21:40;2.38;;;1.73;;
78372;SDS011;67656;52.074;4.758;2023-07-24T12:26:41;2.72;;;1.50;;
78372;SDS011;67656;52.074;4.758;2023-07-24T12:31:41;2.85;;;1.40;;
78372;SDS011;67656;52.074;4.758;2023-07-24T12:36:41;2.08;;;1.50;;
78372;SDS011;67656;52.074;4.758;2023-07-24T12:41:42;3.50;;;1.55;;
78372;SDS011;67656;52.074;4.758;2023-07-24T12:46:42;2.47;;;1.60;;
78372;SDS011;67656;52.074;4.758;2023-07-24T12:51:43;3.38;;;1.58;;
78372;SDS011;67656;52.074;4.758;2023-07-24T12:56:43;3.25;;;1.55;;
78372;SDS011;67656;52.074;4.758;2023-07-24T13:01:44;3.97;;;1.50;;
78372;SDS011;67656;52.074;4.758;2023-07-24T13:06:45;2.88;;;1.25;;
78372;SDS011;67656;52.074;4.758;2023-07-24T13:11:45;2.97;;;1.35;;
78372;SDS011;67656;52.074;4.758;2023-07-24T13:16:45;3.17;;;1.27;;
78372;SDS011;67656;52.074;4.758;2023-07-24T13:21:46;2.15;;;1.20;;
78372;SDS011;67656;52.074;4.758;2023-07-24T13:26:46;3.55;;;1.33;;
78372;SDS011;67656;52.074;4.758;2023-07-24T13:31:47;3.15;;;1.27;;
78372;SDS011;67656;52.074;4.758;2023-07-24T13:36:50;4.07;;;1.70;;
78372;SDS011;67656;52.074;4.758;2023-07-24T13:41:50;4.18;;;1.17;;
78372;SDS011;67656;52.074;4.758;2023-07-24T13:46:51;2.53;;;1.10;;
78372;SDS011;67656;52.074;4.758;2023-07-24T13:51:51;4.32;;;1.25;;
78372;SDS011;67656;52.074;4.758;2023-07-24T13:56:52;4.88;;;1.20;;
78372;SDS011;67656;52.074;4.758;2023-07-24T14:01:52;4.30;;;1.10;;
78372;SDS011;67656;52.074;4.758;2023-07-24T14:06:52;1.98;;;1.10;;
78372;SDS011;67656;52.074;4.758;2023-07-24T14:11:53;3.13;;;1.20;;
78372;SDS011;67656;52.074;4.758;2023-07-24T14:16:53;4.70;;;1.23;;
78372;SDS011;67656;52.074;4.758;2023-07-24T14:21:54;3.83;;;1.27;;
78372;SDS011;67656;52.074;4.758;2023-07-24T14:26:54;2.30;;;0.90;;
78372;SDS011;67656;52.074;4.758;2023-07-24T14:31:54;3.20;;;1.27;;
78372;SDS011;67656;52.074;4.758;2023-07-24T14:36:55;1.67;;;0.80;;
78372;SDS011;67656;52.074;4.758;2023-07-24T14:41:55;5.22;;;1.05;;
78372;SDS011;67656;52.074;4.758;2023-07-24T14:46:56;4.75;;;0.80;;
78372;SDS011;67656;52.074;4.758;2023-07-24T14:51:56;3.60;;;0.90;;
78372;SDS011;67656;52.074;4.758;2023-07-24T14:56:57;3.75;;;1.10;;
78372;SDS011;67656;52.074;4.758;2023-07-24T15:01:58;3.10;;;0.70;;
78372;SDS011;67656;52.074;4.758;2023-07-24T15:06:59;2.85;;;0.80;;
78372;SDS011;67656;52.074;4.758;2023-07-24T15:11:59;4.10;;;0.98;;
78372;SDS011;67656;52.074;4.758;2023-07-24T15:16:59;4.20;;;0.63;;
78372;SDS011;67656;52.074;4.758;2023-07-24T15:22:00;1.83;;;0.60;;
78372;SDS011;67656;52.074;4.758;2023-07-24T15:27:00;2.30;;;0.60;;
78372;SDS011;67656;52.074;4.758;2023-07-24T15:32:01;2.70;;;0.50;;
78372;SDS011;67656;52.074;4.758;2023-07-24T15:37:01;2.88;;;0.68;;
78372;SDS011;67656;52.074;4.758;2023-07-24T15:42:04;1.60;;;0.47;;
78372;SDS011;67656;52.074;4.758;2023-07-24T15:47:05;2.20;;;0.82;;
78372;SDS011;67656;52.074;4.758;2023-07-24T15:52:05;2.72;;;0.70;;
78372;SDS011;67656;52.074;4.758;2023-07-24T15:57:06;2.00;;;0.70;;
78372;SDS011;67656;52.074;4.758;2023-07-24T16:02:07;3.58;;;0.52;;
78372;SDS011;67656;52.074;4.758;2023-07-24T16:07:07;2.60;;;0.60;;
78372;SDS011;67656;52.074;4.758;2023-07-24T16:12:07;2.75;;;0.80;;
78372;SDS011;67656;52.074;4.758;2023-07-24T16:17:08;3.42;;;0.80;;
78372;SDS011;67656;52.074;4.758;2023-07-24T16:22:08;3.58;;;0.70;;
78372;SDS011;67656;52.074;4.758;2023-07-24T16:27:17;3.45;;;0.77;;
78372;SDS011;67656;52.074;4.758;2023-07-24T16:32:51;2.28;;;0.90;;
78372;SDS011;67656;52.074;4.758;2023-07-24T16:38:18;2.35;;;1.00;;
78372;SDS011;67656;52.074;4.758;2023-07-24T16:43:28;3.58;;;0.70;;
78372;SDS011;67656;52.074;4.758;2023-07-24T16:48:55;3.67;;;1.05;;
78372;SDS011;67656;52.074;4.758;2023-07-24T16:54:02;2.38;;;0.73;;
78372;SDS011;67656;52.074;4.758;2023-07-24T16:59:08;1.85;;;0.80;;
78372;SDS011;67656;52.074;4.758;2023-07-24T17:04:14;3.72;;;1.08;;
78372;SDS011;67656;52.074;4.758;2023-07-24T17:14:16;2.25;;;0.80;;
78372;SDS011;67656;52.074;4.758;2023-07-24T17:19:17;3.50;;;0.82;;
78372;SDS011;67656;52.074;4.758;2023-07-24T17:24:18;2.30;;;0.80;;
78372;SDS011;67656;52.074;4.758;2023-07-24T17:29:19;4.10;;;1.00;;
78372;SDS011;67656;52.074;4.758;2023-07-24T17:34:20;3.53;;;0.80;;
78372;SDS011;67656;52.074;4.758;2023-07-24T17:39:28;4.65;;;1.00;;
78372;SDS011;67656;52.074;4.758;2023-07-24T17:44:33;3.47;;;0.90;;
78372;SDS011;67656;52.074;4.758;2023-07-24T17:49:37;4.53;;;1.20;;
78372;SDS011;67656;52.074;4.758;2023-07-24T17:54:40;4.95;;;1.30;;
78372;SDS011;67656;52.074;4.758;2023-07-24T17:59:41;7.75;;;1.77;;
78372;SDS011;67656;52.074;4.758;2023-07-24T18:04:42;5.22;;;1.60;;
78372;SDS011;67656;52.074;4.758;2023-07-24T18:09:43;4.30;;;1.23;;
78372;SDS011;67656;52.074;4.758;2023-07-24T18:14:44;4.85;;;1.20;;
78372;SDS011;67656;52.074;4.758;2023-07-24T18:19:45;3.72;;;1.23;;
78372;SDS011;67656;52.074;4.758;2023-07-24T18:24:49;6.93;;;1.40;;
78372;SDS011;67656;52.074;4.758;2023-07-24T18:29:54;5.20;;;1.27;;
78372;SDS011;67656;52.074;4.758;2023-07-24T18:34:57;2.63;;;1.00;;
78372;SDS011;67656;52.074;4.758;2023-07-24T18:39:57;6.20;;;1.50;;
78372;SDS011;67656;52.074;4.758;2023-07-24T18:44:58;3.17;;;1.13;;
78372;SDS011;67656;52.074;4.758;2023-07-24T18:50:00;4.03;;;1.20;;
78372;SDS011;67656;52.074;4.758;2023-07-24T18:55:02;3.80;;;1.10;;
78372;SDS011;67656;52.074;4.758;2023-07-24T19:00:02;3.75;;;1.00;;
78372;SDS011;67656;52.074;4.758;2023-07-24T19:05:03;3.95;;;1.00;;
78372;SDS011;67656;52.074;4.758;2023-07-24T19:10:05;2.85;;;1.35;;
78372;SDS011;67656;52.074;4.758;2023-07-24T19:15:06;3.42;;;1.20;;
78372;SDS011;67656;52.074;4.758;2023-07-24T19:20:09;4.43;;;1.15;;
78372;SDS011;67656;52.074;4.758;2023-07-24T19:30:33;4.75;;;1.50;;
78372;SDS011;67656;52.074;4.758;2023-07-24T19:35:36;6.97;;;1.40;;
78372;SDS011;67656;52.074;4.758;2023-07-24T19:40:36;4.57;;;1.50;;
78372;SDS011;67656;52.074;4.758;2023-07-24T19:45:39;6.45;;;1.70;;
78372;SDS011;67656;52.074;4.758;2023-07-24T19:50:45;2.15;;;1.20;;
78372;SDS011;67656;52.074;4.758;2023-07-24T19:55:49;8.35;;;1.60;;
78372;SDS011;67656;52.074;4.758;2023-07-24T20:00:50;6.75;;;1.48;;
78372;SDS011;67656;52.074;4.758;2023-07-24T20:05:52;5.00;;;1.40;;
78372;SDS011;67656;52.074;4.758;2023-07-24T20:10:54;4.35;;;1.63;;
78372;SDS011;67656;52.074;4.758;2023-07-24T20:15:56;3.93;;;1.50;;
78372;SDS011;67656;52.074;4.758;2023-07-24T20:21:13;8.25;;;1.63;;
78372;SDS011;67656;52.074;4.758;2023-07-24T20:26:13;4.82;;;1.42;;
78372;SDS011;67656;52.074;4.758;2023-07-24T20:31:14;6.18;;;1.52;;
78372;SDS011;67656;52.074;4.758;2023-07-24T20:36:14;5.50;;;1.50;;
78372;SDS011;67656;52.074;4.758;2023-07-24T20:41:15;4.85;;;2.28;;
78372;SDS011;67656;52.074;4.758;2023-07-24T20:46:15;5.65;;;1.75;;
78372;SDS011;67656;52.074;4.758;2023-07-24T20:51:19;7.57;;;1.67;;
78372;SDS011;67656;52.074;4.758;2023-07-24T20:56:22;8.88;;;2.00;;
78372;SDS011;67656;52.074;4.758;2023-07-24T21:01:22;3.00;;;1.60;;
78372;SDS011;67656;52.074;4.758;2023-07-24T21:06:23;8.57;;;2.13;;
78372;SDS011;67656;52.074;4.758;2023-07-24T21:11:23;6.47;;;2.30;;
78372;SDS011;67656;52.074;4.758;2023-07-24T21:16:23;7.47;;;2.35;;
78372;SDS011;67656;52.074;4.758;2023-07-24T21:21:24;7.47;;;1.95;;
78372;SDS011;67656;52.074;4.758;2023-07-24T21:26:24;6.18;;;2.10;;
78372;SDS011;67656;52.074;4.758;2023-07-24T21:31:25;5.35;;;1.98;;
78372;SDS011;67656;52.074;4.758;2023-07-24T21:36:25;5.15;;;1.98;;
78372;SDS011;67656;52.074;4.758;2023-07-24T21:41:25;7.15;;;2.72;;
78372;SDS011;67656;52.074;4.758;2023-07-24T21:46:26;8.18;;;2.22;;
78372;SDS011;67656;52.074;4.758;2023-07-24T21:51:26;8.00;;;2.03;;
78372;SDS011;67656;52.074;4.758;2023-07-24T21:56:27;7.93;;;2.55;;
78372;SDS011;67656;52.074;4.758;2023-07-24T22:01:27;5.70;;;2.10;;
78372;SDS011;67656;52.074;4.758;2023-07-24T22:06:27;9.65;;;2.53;;
78372;SDS011;67656;52.074;4.758;2023-07-24T22:11:28;7.63;;;2.65;;
78372;SDS011;67656;52.074;4.758;2023-07-24T22:16:28;6.57;;;2.72;;
78372;SDS011;67656;52.074;4.758;2023-07-24T22:21:29;10.07;;;2.95;;
78372;SDS011;67656;52.074;4.758;2023-07-24T22:26:29;7.25;;;2.60;;
78372;SDS011;67656;52.074;4.758;2023-07-24T22:31:30;4.80;;;2.35;;
78372;SDS011;67656;52.074;4.758;2023-07-24T22:36:30;7.65;;;3.05;;
78372;SDS011;67656;52.074;4.758;2023-07-24T22:41:30;6.18;;;2.72;;
78372;SDS011;67656;52.074;4.758;2023-07-24T22:46:31;7.07;;;2.75;;
78372;SDS011;67656;52.074;4.758;2023-07-24T22:51:31;7.13;;;2.97;;
78372;SDS011;67656;52.074;4.758;2023-07-24T22:56:31;8.95;;;2.63;;
78372;SDS011;67656;52.074;4.758;2023-07-24T23:01:32;12.13;;;3.05;;
78372;SDS011;67656;52.074;4.758;2023-07-24T23:06:32;6.97;;;2.33;;
78372;SDS011;67656;52.074;4.758;2023-07-24T23:11:33;10.88;;;3.05;;
78372;SDS011;67656;52.074;4.758;2023-07-24T23:16:33;8.15;;;2.95;;
78372;SDS011;67656;52.074;4.758;2023-07-24T23:21:34;8.23;;;2.55;;
78372;SDS011;67656;52.074;4.758;2023-07-24T23:26:34;7.85;;;2.97;;
78372;SDS011;67656;52.074;4.758;2023-07-24T23:31:35;8.00;;;2.70;;
78372;SDS011;67656;52.074;4.758;2023-07-24T23:36:37;7.75;;;2.30;;
78372;SDS011;67656;52.074;4.758;2023-07-24T23:41:38;7.97;;;2.78;;
78372;SDS011;67656;52.074;4.758;2023-07-24T23:46:38;6.00;;;2.28;;
78372;SDS011;67656;52.074;4.758;2023-07-24T23:51:39;9.07;;;2.65;;
78372;SDS011;67656;52.074;4.758;2023-07-24T23:56:39;8.73;;;2.13;;
